sensor_id;sensor_type;location;lat;lon;timestamp;temperature;humidity
6118;DHT22;3089;48.202;11.510;2022-11-21T00:01:18;4.90;99.90
6118;DHT22;3089;48.202;11.510;2022-11-21T00:03:47;4.80;99.90
6118;DHT22;3089;48.202;11.510;2022-11-21T00:06:15;4.90;99.90
6118;DHT22;3089;48.202;11.510;2022-11-21T00:08:43;4.80;99.90
6118;DHT22;3089;48.202;11.510;2022-11-21T00:11:13;4.80;99.90
6118;DHT22;3089;48.202;11.510;2022-11-21T00:13:41;4.80;99.90
6118;DHT22;3089;48.202;11.510;2022-11-21T00:16:11;4.70;99.90
6118;DHT22;3089;48.202;11.510;2022-11-21T00:18:39;4.80;99.90
6118;DHT22;3089;48.202;11.510;2022-11-21T00:21:10;4.80;99.90
6118;DHT22;3089;48.202;11.510;2022-11-21T00:23:39;4.80;99.90
6118;DHT22;3089;48.202;11.510;2022-11-21T00:26:07;4.80;99.90
6118;DHT22;3089;48.202;11.510;2022-11-21T00:28:37;4.80;99.90
6118;DHT22;3089;48.202;11.510;2022-11-21T00:31:07;4.80;99.90
6118;DHT22;3089;48.202;11.510;2022-11-21T00:33:35;4.80;99.90
6118;DHT22;3089;48.202;11.510;2022-11-21T00:36:05;4.80;99.90
6118;DHT22;3089;48.202;11.510;2022-11-21T00:38:34;4.80;99.90
6118;DHT22;3089;48.202;11.510;2022-11-21T00:41:01;4.70;99.90
6118;DHT22;3089;48.202;11.510;2022-11-21T00:43:29;4.80;99.90
6118;DHT22;3089;48.202;11.510;2022-11-21T00:45:59;4.80;99.90
6118;DHT22;3089;48.202;11.510;2022-11-21T00:48:29;4.80;99.90
6118;DHT22;3089;48.202;11.510;2022-11-21T00:50:58;4.80;99.90
6118;DHT22;3089;48.202;11.510;2022-11-21T00:53:26;4.80;99.90
6118;DHT22;3089;48.202;11.510;2022-11-21T00:55:54;4.70;99.90
6118;DHT22;3089;48.202;11.510;2022-11-21T00:58:23;4.70;99.90
6118;DHT22;3089;48.202;11.510;2022-11-21T01:00:51;4.80;99.90
6118;DHT22;3089;48.202;11.510;2022-11-21T01:03:20;4.70;99.90
6118;DHT22;3089;48.202;11.510;2022-11-21T01:05:48;4.80;99.90
6118;DHT22;3089;48.202;11.510;2022-11-21T01:08:15;4.80;99.90
6118;DHT22;3089;48.202;11.510;2022-11-21T01:10:43;4.80;99.90
6118;DHT22;3089;48.202;11.510;2022-11-21T01:13:11;4.80;99.90
6118;DHT22;3089;48.202;11.510;2022-11-21T01:15:39;4.80;99.90
6118;DHT22;3089;48.202;11.510;2022-11-21T01:18:07;4.80;99.90
6118;DHT22;3089;48.202;11.510;2022-11-21T01:20:39;4.80;99.90
6118;DHT22;3089;48.202;11.510;2022-11-21T01:23:06;4.80;99.90
6118;DHT22;3089;48.202;11.510;2022-11-21T01:25:34;4.70;99.90
6118;DHT22;3089;48.202;11.510;2022-11-21T01:28:03;4.70;99.90
6118;DHT22;3089;48.202;11.510;2022-11-21T01:30:30;4.80;99.90
6118;DHT22;3089;48.202;11.510;2022-11-21T01:32:58;4.80;99.90
6118;DHT22;3089;48.202;11.510;2022-11-21T01:35:26;4.80;99.90
6118;DHT22;3089;48.202;11.510;2022-11-21T01:37:55;4.80;99.90
6118;DHT22;3089;48.202;11.510;2022-11-21T01:40:23;4.80;99.90
6118;DHT22;3089;48.202;11.510;2022-11-21T01:42:52;4.80;99.90
6118;DHT22;3089;48.202;11.510;2022-11-21T01:45:47;4.80;99.90
6118;DHT22;3089;48.202;11.510;2022-11-21T01:48:18;4.70;99.90
6118;DHT22;3089;48.202;11.510;2022-11-21T01:50:46;4.80;99.90
6118;DHT22;3089;48.202;11.510;2022-11-21T01:53:15;4.80;99.90
6118;DHT22;3089;48.202;11.510;2022-11-21T01:55:43;4.80;99.90
6118;DHT22;3089;48.202;11.510;2022-11-21T01:58:12;4.80;99.90
6118;DHT22;3089;48.202;11.510;2022-11-21T02:00:41;4.80;99.90
6118;DHT22;3089;48.202;11.510;2022-11-21T02:03:12;4.80;99.90
6118;DHT22;3089;48.202;11.510;2022-11-21T02:05:42;4.70;99.90
6118;DHT22;3089;48.202;11.510;2022-11-21T02:08:19;4.80;99.90
6118;DHT22;3089;48.202;11.510;2022-11-21T02:10:53;4.70;99.90
6118;DHT22;3089;48.202;11.510;2022-11-21T02:13:23;4.70;99.90
6118;DHT22;3089;48.202;11.510;2022-11-21T02:15:52;4.70;99.90
6118;DHT22;3089;48.202;11.510;2022-11-21T02:18:20;4.70;99.90
6118;DHT22;3089;48.202;11.510;2022-11-21T02:20:52;4.70;99.90
6118;DHT22;3089;48.202;11.510;2022-11-21T02:23:27;4.70;99.90
6118;DHT22;3089;48.202;11.510;2022-11-21T02:25:59;4.80;99.90
6118;DHT22;3089;48.202;11.510;2022-11-21T02:28:27;4.70;99.90
6118;DHT22;3089;48.202;11.510;2022-11-21T02:30:55;4.60;99.90
6118;DHT22;3089;48.202;11.510;2022-11-21T02:33:23;4.70;99.90
6118;DHT22;3089;48.202;11.510;2022-11-21T02:35:58;4.70;99.90
6118;DHT22;3089;48.202;11.510;2022-11-21T02:38:29;4.70;99.90
6118;DHT22;3089;48.202;11.510;2022-11-21T02:41:05;4.70;99.90
6118;DHT22;3089;48.202;11.510;2022-11-21T02:43:37;4.70;99.90
6118;DHT22;3089;48.202;11.510;2022-11-21T02:46:06;4.60;99.90
6118;DHT22;3089;48.202;11.510;2022-11-21T02:48:35;4.70;99.90
6118;DHT22;3089;48.202;11.510;2022-11-21T02:51:04;4.70;99.90
6118;DHT22;3089;48.202;11.510;2022-11-21T02:53:31;4.70;99.90
6118;DHT22;3089;48.202;11.510;2022-11-21T02:56:01;4.60;99.90
6118;DHT22;3089;48.202;11.510;2022-11-21T02:58:29;4.60;99.90
6118;DHT22;3089;48.202;11.510;2022-11-21T03:00:56;4.60;99.90
6118;DHT22;3089;48.202;11.510;2022-11-21T03:03:24;4.60;99.90
6118;DHT22;3089;48.202;11.510;2022-11-21T03:05:53;4.60;99.90
6118;DHT22;3089;48.202;11.510;2022-11-21T03:08:21;4.60;99.90
6118;DHT22;3089;48.202;11.510;2022-11-21T03:10:49;4.60;99.90
6118;DHT22;3089;48.202;11.510;2022-11-21T03:13:18;4.60;99.90
6118;DHT22;3089;48.202;11.510;2022-11-21T03:15:46;4.60;99.90
6118;DHT22;3089;48.202;11.510;2022-11-21T03:18:13;4.60;99.90
6118;DHT22;3089;48.202;11.510;2022-11-21T03:20:41;4.60;99.90
6118;DHT22;3089;48.202;11.510;2022-11-21T03:23:09;4.50;99.90
6118;DHT22;3089;48.202;11.510;2022-11-21T03:25:37;4.50;99.90
6118;DHT22;3089;48.202;11.510;2022-11-21T03:28:04;4.40;99.90
6118;DHT22;3089;48.202;11.510;2022-11-21T03:30:35;4.50;99.90
6118;DHT22;3089;48.202;11.510;2022-11-21T03:33:03;4.40;99.90
6118;DHT22;3089;48.202;11.510;2022-11-21T03:35:34;4.50;99.90
6118;DHT22;3089;48.202;11.510;2022-11-21T03:38:02;4.50;99.90
6118;DHT22;3089;48.202;11.510;2022-11-21T03:40:30;4.50;99.90
6118;DHT22;3089;48.202;11.510;2022-11-21T03:43:03;4.40;99.90
6118;DHT22;3089;48.202;11.510;2022-11-21T03:45:31;4.40;99.90
6118;DHT22;3089;48.202;11.510;2022-11-21T03:48:00;4.50;99.90
6118;DHT22;3089;48.202;11.510;2022-11-21T03:50:28;4.50;99.90
6118;DHT22;3089;48.202;11.510;2022-11-21T03:52:55;4.50;99.90
6118;DHT22;3089;48.202;11.510;2022-11-21T03:55:23;4.50;99.90
6118;DHT22;3089;48.202;11.510;2022-11-21T03:57:51;4.50;99.90
6118;DHT22;3089;48.202;11.510;2022-11-21T04:00:19;4.50;99.90
6118;DHT22;3089;48.202;11.510;2022-11-21T04:02:47;4.50;99.90
6118;DHT22;3089;48.202;11.510;2022-11-21T04:05:16;4.50;99.90
6118;DHT22;3089;48.202;11.510;2022-11-21T04:07:44;4.50;99.90
6118;DHT22;3089;48.202;11.510;2022-11-21T04:10:13;4.50;99.90
6118;DHT22;3089;48.202;11.510;2022-11-21T04:12:40;4.50;99.90
6118;DHT22;3089;48.202;11.510;2022-11-21T04:15:08;4.50;99.90
6118;DHT22;3089;48.202;11.510;2022-11-21T04:17:39;4.60;99.90
6118;DHT22;3089;48.202;11.510;2022-11-21T04:20:08;4.60;99.90
6118;DHT22;3089;48.202;11.510;2022-11-21T04:22:37;4.60;99.90
6118;DHT22;3089;48.202;11.510;2022-11-21T04:25:06;4.60;99.90
6118;DHT22;3089;48.202;11.510;2022-11-21T04:27:34;4.60;99.90
6118;DHT22;3089;48.202;11.510;2022-11-21T04:30:02;4.60;99.90
6118;DHT22;3089;48.202;11.510;2022-11-21T04:32:30;4.60;99.90
6118;DHT22;3089;48.202;11.510;2022-11-21T04:34:58;4.60;99.90
6118;DHT22;3089;48.202;11.510;2022-11-21T04:37:26;4.60;99.90
6118;DHT22;3089;48.202;11.510;2022-11-21T04:39:55;4.60;99.90
6118;DHT22;3089;48.202;11.510;2022-11-21T04:42:23;4.60;99.90
6118;DHT22;3089;48.202;11.510;2022-11-21T04:44:50;4.60;99.90
6118;DHT22;3089;48.202;11.510;2022-11-21T04:47:18;4.60;99.90
6118;DHT22;3089;48.202;11.510;2022-11-21T04:49:46;4.60;99.90
6118;DHT22;3089;48.202;11.510;2022-11-21T04:52:14;4.60;99.90
6118;DHT22;3089;48.202;11.510;2022-11-21T04:54:41;4.60;99.90
6118;DHT22;3089;48.202;11.510;2022-11-21T04:57:11;4.50;99.90
6118;DHT22;3089;48.202;11.510;2022-11-21T04:59:38;4.60;99.90
6118;DHT22;3089;48.202;11.510;2022-11-21T05:02:06;4.50;99.90
6118;DHT22;3089;48.202;11.510;2022-11-21T05:04:34;4.50;99.90
6118;DHT22;3089;48.202;11.510;2022-11-21T05:07:02;4.50;99.90
6118;DHT22;3089;48.202;11.510;2022-11-21T05:09:29;4.50;99.90
6118;DHT22;3089;48.202;11.510;2022-11-21T05:11:57;4.50;99.90
6118;DHT22;3089;48.202;11.510;2022-11-21T05:14:44;4.50;99.90
6118;DHT22;3089;48.202;11.510;2022-11-21T05:17:12;4.50;99.90
6118;DHT22;3089;48.202;11.510;2022-11-21T05:19:40;4.50;99.90
6118;DHT22;3089;48.202;11.510;2022-11-21T05:22:08;4.50;99.90
6118;DHT22;3089;48.202;11.510;2022-11-21T05:24:35;4.60;99.90
6118;DHT22;3089;48.202;11.510;2022-11-21T05:27:03;4.50;99.90
6118;DHT22;3089;48.202;11.510;2022-11-21T05:29:31;4.60;99.90
6118;DHT22;3089;48.202;11.510;2022-11-21T05:32:01;4.60;99.90
6118;DHT22;3089;48.202;11.510;2022-11-21T05:34:28;4.60;99.90
6118;DHT22;3089;48.202;11.510;2022-11-21T05:36:56;4.50;99.90
6118;DHT22;3089;48.202;11.510;2022-11-21T05:39:25;4.60;99.90
6118;DHT22;3089;48.202;11.510;2022-11-21T05:41:53;4.60;99.90
6118;DHT22;3089;48.202;11.510;2022-11-21T05:44:28;4.60;99.90
6118;DHT22;3089;48.202;11.510;2022-11-21T05:46:55;4.50;99.90
6118;DHT22;3089;48.202;11.510;2022-11-21T05:49:25;4.50;99.90
6118;DHT22;3089;48.202;11.510;2022-11-21T05:51:52;4.60;99.90
6118;DHT22;3089;48.202;11.510;2022-11-21T05:54:20;4.50;99.90
6118;DHT22;3089;48.202;11.510;2022-11-21T05:56:48;4.50;99.90
6118;DHT22;3089;48.202;11.510;2022-11-21T05:59:16;4.50;99.90
6118;DHT22;3089;48.202;11.510;2022-11-21T06:01:43;4.50;99.90
6118;DHT22;3089;48.202;11.510;2022-11-21T06:04:30;4.50;99.90
6118;DHT22;3089;48.202;11.510;2022-11-21T06:06:58;4.50;99.90
6118;DHT22;3089;48.202;11.510;2022-11-21T06:09:26;4.60;99.90
6118;DHT22;3089;48.202;11.510;2022-11-21T06:11:55;4.50;99.90
6118;DHT22;3089;48.202;11.510;2022-11-21T06:14:23;4.50;99.90
6118;DHT22;3089;48.202;11.510;2022-11-21T06:16:51;4.50;99.90
6118;DHT22;3089;48.202;11.510;2022-11-21T06:19:19;4.40;99.90
6118;DHT22;3089;48.202;11.510;2022-11-21T06:21:48;4.40;99.90
6118;DHT22;3089;48.202;11.510;2022-11-21T06:24:16;4.50;99.90
6118;DHT22;3089;48.202;11.510;2022-11-21T06:26:47;4.50;99.90
6118;DHT22;3089;48.202;11.510;2022-11-21T06:29:15;4.50;99.90
6118;DHT22;3089;48.202;11.510;2022-11-21T06:31:43;4.50;99.90
6118;DHT22;3089;48.202;11.510;2022-11-21T06:34:11;4.40;99.90
6118;DHT22;3089;48.202;11.510;2022-11-21T06:36:39;4.40;99.90
6118;DHT22;3089;48.202;11.510;2022-11-21T06:39:08;4.50;99.90
6118;DHT22;3089;48.202;11.510;2022-11-21T06:41:36;4.50;99.90
6118;DHT22;3089;48.202;11.510;2022-11-21T06:44:04;4.50;99.90
6118;DHT22;3089;48.202;11.510;2022-11-21T06:46:32;4.50;99.90
6118;DHT22;3089;48.202;11.510;2022-11-21T06:48:59;4.50;99.90
6118;DHT22;3089;48.202;11.510;2022-11-21T06:51:27;4.50;99.90
6118;DHT22;3089;48.202;11.510;2022-11-21T06:53:56;4.50;99.90
6118;DHT22;3089;48.202;11.510;2022-11-21T06:56:27;4.50;99.90
6118;DHT22;3089;48.202;11.510;2022-11-21T06:58:56;4.40;99.90
6118;DHT22;3089;48.202;11.510;2022-11-21T07:01:24;4.50;99.90
6118;DHT22;3089;48.202;11.510;2022-11-21T07:03:52;4.60;99.90
6118;DHT22;3089;48.202;11.510;2022-11-21T07:06:20;4.60;99.90
6118;DHT22;3089;48.202;11.510;2022-11-21T07:08:51;4.50;99.90
6118;DHT22;3089;48.202;11.510;2022-11-21T07:11:41;4.50;99.90
6118;DHT22;3089;48.202;11.510;2022-11-21T07:14:09;4.50;99.90
6118;DHT22;3089;48.202;11.510;2022-11-21T07:16:36;4.50;99.90
6118;DHT22;3089;48.202;11.510;2022-11-21T07:19:04;4.50;99.90
6118;DHT22;3089;48.202;11.510;2022-11-21T07:21:32;4.60;99.90
6118;DHT22;3089;48.202;11.510;2022-11-21T07:23:59;4.60;99.90
6118;DHT22;3089;48.202;11.510;2022-11-21T07:26:27;4.50;99.90
6118;DHT22;3089;48.202;11.510;2022-11-21T07:28:57;4.50;99.90
6118;DHT22;3089;48.202;11.510;2022-11-21T07:31:25;4.60;99.90
6118;DHT22;3089;48.202;11.510;2022-11-21T07:33:53;4.60;99.90
6118;DHT22;3089;48.202;11.510;2022-11-21T07:36:21;4.60;99.90
6118;DHT22;3089;48.202;11.510;2022-11-21T07:38:48;4.60;99.90
6118;DHT22;3089;48.202;11.510;2022-11-21T07:41:16;4.50;99.90
6118;DHT22;3089;48.202;11.510;2022-11-21T07:43:44;4.60;99.90
6118;DHT22;3089;48.202;11.510;2022-11-21T07:46:13;4.60;99.90
6118;DHT22;3089;48.202;11.510;2022-11-21T07:48:41;4.60;99.90
6118;DHT22;3089;48.202;11.510;2022-11-21T07:51:09;5.10;99.90
6118;DHT22;3089;48.202;11.510;2022-11-21T07:53:37;5.50;99.90
6118;DHT22;3089;48.202;11.510;2022-11-21T07:56:04;5.80;99.90
6118;DHT22;3089;48.202;11.510;2022-11-21T07:58:35;5.90;99.90
6118;DHT22;3089;48.202;11.510;2022-11-21T08:01:03;6.10;99.90
6118;DHT22;3089;48.202;11.510;2022-11-21T08:03:33;6.00;99.90
6118;DHT22;3089;48.202;11.510;2022-11-21T08:06:02;5.40;99.90
6118;DHT22;3089;48.202;11.510;2022-11-21T08:08:30;5.40;99.90
6118;DHT22;3089;48.202;11.510;2022-11-21T08:10:58;5.10;99.90
6118;DHT22;3089;48.202;11.510;2022-11-21T08:13:30;5.30;99.90
6118;DHT22;3089;48.202;11.510;2022-11-21T08:16:00;5.70;99.90
6118;DHT22;3089;48.202;11.510;2022-11-21T08:18:28;5.60;99.90
6118;DHT22;3089;48.202;11.510;2022-11-21T08:20:59;5.20;99.90
6118;DHT22;3089;48.202;11.510;2022-11-21T08:23:27;5.20;99.90
6118;DHT22;3089;48.202;11.510;2022-11-21T08:25:55;5.50;99.90
6118;DHT22;3089;48.202;11.510;2022-11-21T08:28:23;5.60;99.90
6118;DHT22;3089;48.202;11.510;2022-11-21T08:30:50;6.40;99.90
6118;DHT22;3089;48.202;11.510;2022-11-21T08:33:18;6.10;99.90
6118;DHT22;3089;48.202;11.510;2022-11-21T08:35:46;5.80;99.90
6118;DHT22;3089;48.202;11.510;2022-11-21T08:38:15;5.60;99.90
6118;DHT22;3089;48.202;11.510;2022-11-21T08:40:43;5.40;99.90
6118;DHT22;3089;48.202;11.510;2022-11-21T08:43:11;5.30;99.90
6118;DHT22;3089;48.202;11.510;2022-11-21T08:45:39;5.30;99.90
6118;DHT22;3089;48.202;11.510;2022-11-21T08:48:09;5.40;99.90
6118;DHT22;3089;48.202;11.510;2022-11-21T08:50:37;5.30;99.90
6118;DHT22;3089;48.202;11.510;2022-11-21T08:53:05;5.20;99.90
6118;DHT22;3089;48.202;11.510;2022-11-21T08:55:34;5.20;99.90
6118;DHT22;3089;48.202;11.510;2022-11-21T08:58:02;5.20;99.90
6118;DHT22;3089;48.202;11.510;2022-11-21T09:00:30;5.20;99.90
6118;DHT22;3089;48.202;11.510;2022-11-21T09:02:58;5.30;99.90
6118;DHT22;3089;48.202;11.510;2022-11-21T09:05:30;5.30;99.90
6118;DHT22;3089;48.202;11.510;2022-11-21T09:07:58;5.30;99.90
6118;DHT22;3089;48.202;11.510;2022-11-21T09:10:26;5.30;99.90
6118;DHT22;3089;48.202;11.510;2022-11-21T09:12:58;5.40;99.90
6118;DHT22;3089;48.202;11.510;2022-11-21T09:15:26;5.40;99.90
6118;DHT22;3089;48.202;11.510;2022-11-21T09:18:11;5.60;99.90
6118;DHT22;3089;48.202;11.510;2022-11-21T09:20:40;5.50;99.90
6118;DHT22;3089;48.202;11.510;2022-11-21T09:23:10;5.80;99.90
6118;DHT22;3089;48.202;11.510;2022-11-21T09:25:38;6.60;99.90
6118;DHT22;3089;48.202;11.510;2022-11-21T09:28:09;6.80;99.90
6118;DHT22;3089;48.202;11.510;2022-11-21T09:30:38;6.50;99.90
6118;DHT22;3089;48.202;11.510;2022-11-21T09:33:06;6.20;99.90
6118;DHT22;3089;48.202;11.510;2022-11-21T09:35:34;6.20;99.90
6118;DHT22;3089;48.202;11.510;2022-11-21T09:38:03;6.20;99.90
6118;DHT22;3089;48.202;11.510;2022-11-21T09:40:33;6.10;99.90
6118;DHT22;3089;48.202;11.510;2022-11-21T09:43:12;6.00;99.90
6118;DHT22;3089;48.202;11.510;2022-11-21T09:45:46;6.10;99.90
6118;DHT22;3089;48.202;11.510;2022-11-21T09:48:18;6.30;99.90
6118;DHT22;3089;48.202;11.510;2022-11-21T09:50:53;6.40;99.90
6118;DHT22;3089;48.202;11.510;2022-11-21T09:53:24;6.50;99.90
6118;DHT22;3089;48.202;11.510;2022-11-21T09:55:57;6.50;99.90
6118;DHT22;3089;48.202;11.510;2022-11-21T09:58:31;6.60;99.90
6118;DHT22;3089;48.202;11.510;2022-11-21T10:01:03;6.60;99.90
6118;DHT22;3089;48.202;11.510;2022-11-21T10:03:35;6.80;99.90
6118;DHT22;3089;48.202;11.510;2022-11-21T10:06:16;6.90;99.90
6118;DHT22;3089;48.202;11.510;2022-11-21T10:08:52;6.80;99.90
6118;DHT22;3089;48.202;11.510;2022-11-21T10:11:27;6.60;99.90
6118;DHT22;3089;48.202;11.510;2022-11-21T10:14:09;6.70;99.90
6118;DHT22;3089;48.202;11.510;2022-11-21T10:16:47;6.70;99.90
6118;DHT22;3089;48.202;11.510;2022-11-21T10:19:38;6.70;99.90
6118;DHT22;3089;48.202;11.510;2022-11-21T10:22:33;6.60;99.90
6118;DHT22;3089;48.202;11.510;2022-11-21T10:25:12;6.70;99.90
6118;DHT22;3089;48.202;11.510;2022-11-21T10:27:46;7.20;99.90
6118;DHT22;3089;48.202;11.510;2022-11-21T10:30:18;7.50;99.90
6118;DHT22;3089;48.202;11.510;2022-11-21T10:32:48;8.00;99.90
6118;DHT22;3089;48.202;11.510;2022-11-21T10:35:21;7.90;99.90
6118;DHT22;3089;48.202;11.510;2022-11-21T10:37:51;7.80;99.90
6118;DHT22;3089;48.202;11.510;2022-11-21T10:40:31;7.90;99.90
6118;DHT22;3089;48.202;11.510;2022-11-21T10:43:05;8.00;99.90
6118;DHT22;3089;48.202;11.510;2022-11-21T10:45:49;8.30;99.90
6118;DHT22;3089;48.202;11.510;2022-11-21T10:48:17;8.20;99.90
6118;DHT22;3089;48.202;11.510;2022-11-21T10:51:09;7.90;99.90
6118;DHT22;3089;48.202;11.510;2022-11-21T10:53:39;7.50;99.90
6118;DHT22;3089;48.202;11.510;2022-11-21T10:56:33;7.30;99.90
6118;DHT22;3089;48.202;11.510;2022-11-21T10:59:12;7.10;99.90
6118;DHT22;3089;48.202;11.510;2022-11-21T11:01:54;6.90;99.90
6118;DHT22;3089;48.202;11.510;2022-11-21T11:04:22;6.80;99.90
6118;DHT22;3089;48.202;11.510;2022-11-21T11:06:56;6.50;99.90
6118;DHT22;3089;48.202;11.510;2022-11-21T11:09:28;6.50;99.90
6118;DHT22;3089;48.202;11.510;2022-11-21T11:12:21;6.50;99.90
6118;DHT22;3089;48.202;11.510;2022-11-21T11:14:53;6.80;99.90
6118;DHT22;3089;48.202;11.510;2022-11-21T11:17:27;6.90;99.90
6118;DHT22;3089;48.202;11.510;2022-11-21T11:20:01;7.00;99.90
6118;DHT22;3089;48.202;11.510;2022-11-21T11:22:29;6.80;99.90
6118;DHT22;3089;48.202;11.510;2022-11-21T11:24:57;6.60;99.90
6118;DHT22;3089;48.202;11.510;2022-11-21T11:27:27;6.40;99.90
6118;DHT22;3089;48.202;11.510;2022-11-21T11:29:55;6.30;99.90
6118;DHT22;3089;48.202;11.510;2022-11-21T11:32:23;6.40;99.90
6118;DHT22;3089;48.202;11.510;2022-11-21T11:34:57;6.30;99.90
6118;DHT22;3089;48.202;11.510;2022-11-21T11:37:33;6.50;99.90
6118;DHT22;3089;48.202;11.510;2022-11-21T11:40:15;7.10;99.90
6118;DHT22;3089;48.202;11.510;2022-11-21T11:42:57;7.40;99.90
6118;DHT22;3089;48.202;11.510;2022-11-21T11:46:05;7.60;99.90
6118;DHT22;3089;48.202;11.510;2022-11-21T11:48:55;7.60;99.90
6118;DHT22;3089;48.202;11.510;2022-11-21T11:51:49;7.60;99.90
6118;DHT22;3089;48.202;11.510;2022-11-21T11:54:19;7.50;99.90
6118;DHT22;3089;48.202;11.510;2022-11-21T11:56:48;7.20;99.90
6118;DHT22;3089;48.202;11.510;2022-11-21T11:59:20;7.00;99.90
6118;DHT22;3089;48.202;11.510;2022-11-21T12:01:52;6.90;99.90
6118;DHT22;3089;48.202;11.510;2022-11-21T12:04:23;7.00;99.90
6118;DHT22;3089;48.202;11.510;2022-11-21T12:06:58;7.30;99.90
6118;DHT22;3089;48.202;11.510;2022-11-21T12:09:55;7.60;99.90
6118;DHT22;3089;48.202;11.510;2022-11-21T12:12:30;7.70;99.90
6118;DHT22;3089;48.202;11.510;2022-11-21T12:15:09;7.40;99.90
6118;DHT22;3089;48.202;11.510;2022-11-21T12:18:08;7.40;99.90
6118;DHT22;3089;48.202;11.510;2022-11-21T12:20:44;7.90;99.90
6118;DHT22;3089;48.202;11.510;2022-11-21T12:23:16;8.30;99.90
6118;DHT22;3089;48.202;11.510;2022-11-21T12:25:52;8.30;99.90
6118;DHT22;3089;48.202;11.510;2022-11-21T12:28:28;8.50;99.90
6118;DHT22;3089;48.202;11.510;2022-11-21T12:31:08;8.10;99.90
6118;DHT22;3089;48.202;11.510;2022-11-21T12:33:47;7.80;99.90
6118;DHT22;3089;48.202;11.510;2022-11-21T12:36:25;7.20;99.90
6118;DHT22;3089;48.202;11.510;2022-11-21T12:39:12;7.10;99.90
6118;DHT22;3089;48.202;11.510;2022-11-21T12:41:47;7.00;99.90
6118;DHT22;3089;48.202;11.510;2022-11-21T12:44:50;6.90;99.90
6118;DHT22;3089;48.202;11.510;2022-11-21T12:47:37;6.90;99.90
6118;DHT22;3089;48.202;11.510;2022-11-21T12:50:26;6.80;99.90
6118;DHT22;3089;48.202;11.510;2022-11-21T12:53:21;6.70;99.90
6118;DHT22;3089;48.202;11.510;2022-11-21T12:56:18;6.50;99.90
6118;DHT22;3089;48.202;11.510;2022-11-21T12:58:51;6.60;99.90
6118;DHT22;3089;48.202;11.510;2022-11-21T13:01:26;6.50;99.90
6118;DHT22;3089;48.202;11.510;2022-11-21T13:03:59;6.50;99.90
6118;DHT22;3089;48.202;11.510;2022-11-21T13:06:31;6.60;99.90
6118;DHT22;3089;48.202;11.510;2022-11-21T13:09:01;6.60;99.90
6118;DHT22;3089;48.202;11.510;2022-11-21T13:11:40;6.60;99.90
6118;DHT22;3089;48.202;11.510;2022-11-21T13:14:40;6.50;99.90
6118;DHT22;3089;48.202;11.510;2022-11-21T13:17:25;6.60;99.90
6118;DHT22;3089;48.202;11.510;2022-11-21T13:19:57;6.60;99.90
6118;DHT22;3089;48.202;11.510;2022-11-21T13:22:52;6.50;99.90
6118;DHT22;3089;48.202;11.510;2022-11-21T13:25:42;6.40;99.90
6118;DHT22;3089;48.202;11.510;2022-11-21T13:28:36;6.30;99.90
6118;DHT22;3089;48.202;11.510;2022-11-21T13:31:29;6.20;99.90
6118;DHT22;3089;48.202;11.510;2022-11-21T13:33:58;6.30;99.90
6118;DHT22;3089;48.202;11.510;2022-11-21T13:36:37;6.30;99.90
6118;DHT22;3089;48.202;11.510;2022-11-21T13:39:27;6.20;99.90
6118;DHT22;3089;48.202;11.510;2022-11-21T13:42:11;6.20;99.90
6118;DHT22;3089;48.202;11.510;2022-11-21T13:45:35;6.30;99.90
6118;DHT22;3089;48.202;11.510;2022-11-21T13:48:03;6.30;99.90
6118;DHT22;3089;48.202;11.510;2022-11-21T13:56:34;6.40;99.90
6118;DHT22;3089;48.202;11.510;2022-11-21T13:59:24;6.30;99.90
6118;DHT22;3089;48.202;11.510;2022-11-21T14:02:14;6.30;99.90
6118;DHT22;3089;48.202;11.510;2022-11-21T14:05:02;6.40;99.90
6118;DHT22;3089;48.202;11.510;2022-11-21T14:07:32;6.40;99.90
6118;DHT22;3089;48.202;11.510;2022-11-21T14:10:03;6.40;99.90
6118;DHT22;3089;48.202;11.510;2022-11-21T14:12:34;6.30;99.90
6118;DHT22;3089;48.202;11.510;2022-11-21T14:15:28;6.30;99.90
6118;DHT22;3089;48.202;11.510;2022-11-21T14:18:01;6.20;99.90
6118;DHT22;3089;48.202;11.510;2022-11-21T14:20:32;6.10;99.90
6118;DHT22;3089;48.202;11.510;2022-11-21T14:23:02;6.10;99.90
6118;DHT22;3089;48.202;11.510;2022-11-21T14:25:45;6.20;99.90
6118;DHT22;3089;48.202;11.510;2022-11-21T14:28:20;6.10;99.90
6118;DHT22;3089;48.202;11.510;2022-11-21T14:30:54;6.00;99.90
6118;DHT22;3089;48.202;11.510;2022-11-21T14:33:30;6.00;99.90
6118;DHT22;3089;48.202;11.510;2022-11-21T14:36:01;6.00;99.90
6118;DHT22;3089;48.202;11.510;2022-11-21T14:38:33;6.00;99.90
6118;DHT22;3089;48.202;11.510;2022-11-21T14:41:22;6.10;99.90
6118;DHT22;3089;48.202;11.510;2022-11-21T14:44:03;6.20;99.90
6118;DHT22;3089;48.202;11.510;2022-11-21T14:46:33;6.10;99.90
6118;DHT22;3089;48.202;11.510;2022-11-21T14:52:15;5.90;99.90
6118;DHT22;3089;48.202;11.510;2022-11-21T14:54:51;5.90;99.90
6118;DHT22;3089;48.202;11.510;2022-11-21T14:57:41;6.00;99.90
6118;DHT22;3089;48.202;11.510;2022-11-21T15:00:14;5.80;99.90
6118;DHT22;3089;48.202;11.510;2022-11-21T15:03:03;5.80;99.90
6118;DHT22;3089;48.202;11.510;2022-11-21T15:05:33;5.90;99.90
6118;DHT22;3089;48.202;11.510;2022-11-21T15:08:22;5.80;99.90
6118;DHT22;3089;48.202;11.510;2022-11-21T15:11:11;5.80;99.90
6118;DHT22;3089;48.202;11.510;2022-11-21T15:13:40;5.70;99.90
6118;DHT22;3089;48.202;11.510;2022-11-21T15:16:29;5.70;99.90
6118;DHT22;3089;48.202;11.510;2022-11-21T15:18:57;5.70;99.90
6118;DHT22;3089;48.202;11.510;2022-11-21T15:21:26;5.70;99.90
6118;DHT22;3089;48.202;11.510;2022-11-21T15:23:54;5.70;99.90
6118;DHT22;3089;48.202;11.510;2022-11-21T15:26:28;5.60;99.90
6118;DHT22;3089;48.202;11.510;2022-11-21T15:28:58;5.60;99.90
6118;DHT22;3089;48.202;11.510;2022-11-21T15:31:26;5.60;99.90
6118;DHT22;3089;48.202;11.510;2022-11-21T15:33:59;5.50;99.90
6118;DHT22;3089;48.202;11.510;2022-11-21T15:37:02;5.30;99.90
6118;DHT22;3089;48.202;11.510;2022-11-21T15:39:34;5.40;99.90
6118;DHT22;3089;48.202;11.510;2022-11-21T15:45:22;5.50;99.90
6118;DHT22;3089;48.202;11.510;2022-11-21T15:47:51;5.50;99.90
6118;DHT22;3089;48.202;11.510;2022-11-21T15:50:22;5.50;99.90
6118;DHT22;3089;48.202;11.510;2022-11-21T15:52:51;5.50;99.90
6118;DHT22;3089;48.202;11.510;2022-11-21T15:55:21;5.40;99.90
6118;DHT22;3089;48.202;11.510;2022-11-21T15:57:49;5.40;99.90
6118;DHT22;3089;48.202;11.510;2022-11-21T16:00:17;5.40;99.90
6118;DHT22;3089;48.202;11.510;2022-11-21T16:02:45;5.40;99.90
6118;DHT22;3089;48.202;11.510;2022-11-21T16:05:14;5.40;99.90
6118;DHT22;3089;48.202;11.510;2022-11-21T16:07:42;5.30;99.90
6118;DHT22;3089;48.202;11.510;2022-11-21T16:10:12;5.30;99.90
6118;DHT22;3089;48.202;11.510;2022-11-21T16:12:49;5.30;99.90
6118;DHT22;3089;48.202;11.510;2022-11-21T16:15:17;5.30;99.90
6118;DHT22;3089;48.202;11.510;2022-11-21T16:17:45;5.20;99.90
6118;DHT22;3089;48.202;11.510;2022-11-21T16:20:13;5.20;99.90
6118;DHT22;3089;48.202;11.510;2022-11-21T16:22:41;5.20;99.90
6118;DHT22;3089;48.202;11.510;2022-11-21T16:25:15;5.20;99.90
6118;DHT22;3089;48.202;11.510;2022-11-21T16:27:43;5.20;99.90
6118;DHT22;3089;48.202;11.510;2022-11-21T16:30:11;5.10;99.90
6118;DHT22;3089;48.202;11.510;2022-11-21T16:32:39;5.10;99.90
6118;DHT22;3089;48.202;11.510;2022-11-21T16:35:08;5.00;99.90
6118;DHT22;3089;48.202;11.510;2022-11-21T16:37:35;5.00;99.90
6118;DHT22;3089;48.202;11.510;2022-11-21T16:40:04;5.00;99.90
6118;DHT22;3089;48.202;11.510;2022-11-21T16:42:34;5.00;99.90
6118;DHT22;3089;48.202;11.510;2022-11-21T16:45:02;5.00;99.90
6118;DHT22;3089;48.202;11.510;2022-11-21T16:47:30;5.00;99.90